sensor_id;sensor_type;location;lat;lon;timestamp;temperature;humidity
298;DHT22;133;49.626;9.680;2023-02-28T00:00:48;0.20;80.60
298;DHT22;133;49.626;9.680;2023-02-28T00:03:14;0.10;80.90
298;DHT22;133;49.626;9.680;2023-02-28T00:05:39;0.10;80.90
298;DHT22;133;49.626;9.680;2023-02-28T00:08:07;0.00;81.00
298;DHT22;133;49.626;9.680;2023-02-28T00:10:33;0.00;81.10
298;DHT22;133;49.626;9.680;2023-02-28T00:13:02;0.10;80.80
298;DHT22;133;49.626;9.680;2023-02-28T00:15:28;0.00;80.90
298;DHT22;133;49.626;9.680;2023-02-28T00:17:53;0.00;80.80
298;DHT22;133;49.626;9.680;2023-02-28T00:20:19;0.00;80.90
298;DHT22;133;49.626;9.680;2023-02-28T00:22:48;-0.10;81.10
298;DHT22;133;49.626;9.680;2023-02-28T00:25:20;-0.10;81.40
298;DHT22;133;49.626;9.680;2023-02-28T00:27:47;-0.20;81.50
298;DHT22;133;49.626;9.680;2023-02-28T00:30:16;-0.20;81.50
298;DHT22;133;49.626;9.680;2023-02-28T00:32:43;-0.10;81.70
298;DHT22;133;49.626;9.680;2023-02-28T00:35:09;-0.20;81.50
298;DHT22;133;49.626;9.680;2023-02-28T00:37:35;-0.10;81.50
298;DHT22;133;49.626;9.680;2023-02-28T00:40:01;-0.20;81.60
298;DHT22;133;49.626;9.680;2023-02-28T00:42:30;-0.20;81.60
298;DHT22;133;49.626;9.680;2023-02-28T00:44:56;-0.30;81.80
298;DHT22;133;49.626;9.680;2023-02-28T00:47:21;-0.30;82.20
298;DHT22;133;49.626;9.680;2023-02-28T00:49:47;-0.40;82.30
298;DHT22;133;49.626;9.680;2023-02-28T00:52:13;-0.30;82.40
298;DHT22;133;49.626;9.680;2023-02-28T00:54:38;-0.30;82.10
298;DHT22;133;49.626;9.680;2023-02-28T00:57:04;-0.40;82.00
298;DHT22;133;49.626;9.680;2023-02-28T00:59:29;-0.40;82.10
298;DHT22;133;49.626;9.680;2023-02-28T01:01:55;-0.40;82.40
298;DHT22;133;49.626;9.680;2023-02-28T01:04:20;-0.40;82.50
298;DHT22;133;49.626;9.680;2023-02-28T01:06:46;-0.50;82.40
298;DHT22;133;49.626;9.680;2023-02-28T01:09:12;-0.50;82.50
298;DHT22;133;49.626;9.680;2023-02-28T01:11:37;-0.50;82.40
298;DHT22;133;49.626;9.680;2023-02-28T01:14:04;-0.50;82.50
298;DHT22;133;49.626;9.680;2023-02-28T01:16:30;-0.50;82.30
298;DHT22;133;49.626;9.680;2023-02-28T01:18:56;-0.50;82.70
298;DHT22;133;49.626;9.680;2023-02-28T01:21:22;-0.60;82.70
298;DHT22;133;49.626;9.680;2023-02-28T01:23:48;-0.60;82.80
298;DHT22;133;49.626;9.680;2023-02-28T01:26:16;-0.60;82.90
298;DHT22;133;49.626;9.680;2023-02-28T01:28:43;-0.50;82.80
298;DHT22;133;49.626;9.680;2023-02-28T01:31:09;-0.50;82.90
298;DHT22;133;49.626;9.680;2023-02-28T01:33:35;-0.60;83.10
298;DHT22;133;49.626;9.680;2023-02-28T01:36:09;-0.60;83.40
298;DHT22;133;49.626;9.680;2023-02-28T01:38:35;-0.60;83.30
298;DHT22;133;49.626;9.680;2023-02-28T01:41:01;-0.60;83.30
298;DHT22;133;49.626;9.680;2023-02-28T01:43:32;-0.50;83.10
298;DHT22;133;49.626;9.680;2023-02-28T01:45:58;-0.50;83.00
298;DHT22;133;49.626;9.680;2023-02-28T01:48:30;-0.50;83.00
298;DHT22;133;49.626;9.680;2023-02-28T01:51:02;-0.50;82.90
298;DHT22;133;49.626;9.680;2023-02-28T01:53:32;-0.60;83.10
298;DHT22;133;49.626;9.680;2023-02-28T01:56:00;-0.70;83.10
298;DHT22;133;49.626;9.680;2023-02-28T01:58:25;-0.70;83.50
298;DHT22;133;49.626;9.680;2023-02-28T02:00:51;-0.70;83.80
298;DHT22;133;49.626;9.680;2023-02-28T02:03:18;-0.80;83.80
298;DHT22;133;49.626;9.680;2023-02-28T02:05:45;-0.80;84.30
298;DHT22;133;49.626;9.680;2023-02-28T02:08:17;-0.80;84.10
298;DHT22;133;49.626;9.680;2023-02-28T02:10:46;-0.80;84.30
298;DHT22;133;49.626;9.680;2023-02-28T02:13:34;-0.70;84.20
298;DHT22;133;49.626;9.680;2023-02-28T02:28:04;-0.60;83.80
298;DHT22;133;49.626;9.680;2023-02-28T02:36:13;-0.70;83.80
298;DHT22;133;49.626;9.680;2023-02-28T02:39:13;-0.80;84.10
298;DHT22;133;49.626;9.680;2023-02-28T02:41:50;-0.70;83.90
298;DHT22;133;49.626;9.680;2023-02-28T02:44:29;-0.80;83.80
298;DHT22;133;49.626;9.680;2023-02-28T02:47:05;-0.90;83.90
298;DHT22;133;49.626;9.680;2023-02-28T02:49:36;-0.90;84.20
298;DHT22;133;49.626;9.680;2023-02-28T02:52:06;-1.00;84.40
298;DHT22;133;49.626;9.680;2023-02-28T02:54:36;-0.90;84.30
298;DHT22;133;49.626;9.680;2023-02-28T02:57:06;-1.00;84.50
298;DHT22;133;49.626;9.680;2023-02-28T02:59:36;-1.10;84.70
298;DHT22;133;49.626;9.680;2023-02-28T03:02:05;-1.00;84.70
298;DHT22;133;49.626;9.680;2023-02-28T03:04:37;-1.00;84.40
298;DHT22;133;49.626;9.680;2023-02-28T03:07:05;-0.90;84.50
298;DHT22;133;49.626;9.680;2023-02-28T03:09:33;-0.90;84.30
298;DHT22;133;49.626;9.680;2023-02-28T03:11:59;-1.00;84.80
298;DHT22;133;49.626;9.680;2023-02-28T03:14:40;-1.00;84.70
298;DHT22;133;49.626;9.680;2023-02-28T03:17:23;-0.90;84.40
298;DHT22;133;49.626;9.680;2023-02-28T03:20:15;-0.90;84.40
298;DHT22;133;49.626;9.680;2023-02-28T03:22:51;-1.00;84.00
298;DHT22;133;49.626;9.680;2023-02-28T03:25:20;-1.00;84.10
298;DHT22;133;49.626;9.680;2023-02-28T03:28:00;-1.00;84.20
298;DHT22;133;49.626;9.680;2023-02-28T03:33:12;-1.10;84.50
298;DHT22;133;49.626;9.680;2023-02-28T03:35:45;-1.10;84.60
298;DHT22;133;49.626;9.680;2023-02-28T03:38:18;-1.10;84.60
298;DHT22;133;49.626;9.680;2023-02-28T03:40:51;-1.20;84.90
298;DHT22;133;49.626;9.680;2023-02-28T03:43:25;-1.10;84.70
298;DHT22;133;49.626;9.680;2023-02-28T03:45:54;-1.10;84.80
298;DHT22;133;49.626;9.680;2023-02-28T03:48:26;-1.10;84.60
298;DHT22;133;49.626;9.680;2023-02-28T03:50:58;-1.10;84.80
298;DHT22;133;49.626;9.680;2023-02-28T03:53:32;-1.10;84.50
298;DHT22;133;49.626;9.680;2023-02-28T03:56:11;-1.10;84.70
298;DHT22;133;49.626;9.680;2023-02-28T03:58:51;-1.10;84.70
298;DHT22;133;49.626;9.680;2023-02-28T04:01:35;-1.10;84.50
298;DHT22;133;49.626;9.680;2023-02-28T04:04:02;-1.10;84.50
298;DHT22;133;49.626;9.680;2023-02-28T04:06:31;-1.00;84.50
298;DHT22;133;49.626;9.680;2023-02-28T04:08:57;-1.10;84.50
298;DHT22;133;49.626;9.680;2023-02-28T04:14:03;-1.10;84.40
298;DHT22;133;49.626;9.680;2023-02-28T04:16:30;-1.10;84.60
298;DHT22;133;49.626;9.680;2023-02-28T04:18:56;-1.10;84.70
298;DHT22;133;49.626;9.680;2023-02-28T04:21:28;-1.10;84.40
298;DHT22;133;49.626;9.680;2023-02-28T04:23:54;-1.10;84.50
298;DHT22;133;49.626;9.680;2023-02-28T04:26:20;-1.10;84.50
298;DHT22;133;49.626;9.680;2023-02-28T04:28:46;-1.00;84.50
298;DHT22;133;49.626;9.680;2023-02-28T04:31:11;-0.90;84.00
298;DHT22;133;49.626;9.680;2023-02-28T04:33:37;-0.90;83.60
298;DHT22;133;49.626;9.680;2023-02-28T04:36:06;-0.90;83.90
298;DHT22;133;49.626;9.680;2023-02-28T04:38:35;-1.00;83.60
298;DHT22;133;49.626;9.680;2023-02-28T04:41:01;-1.00;83.70
298;DHT22;133;49.626;9.680;2023-02-28T04:43:27;-1.10;84.00
298;DHT22;133;49.626;9.680;2023-02-28T04:45:54;-1.10;83.90
298;DHT22;133;49.626;9.680;2023-02-28T04:48:23;-1.10;83.90
298;DHT22;133;49.626;9.680;2023-02-28T04:50:50;-1.20;83.60
298;DHT22;133;49.626;9.680;2023-02-28T04:53:15;-1.20;83.90
298;DHT22;133;49.626;9.680;2023-02-28T04:55:41;-1.30;84.10
298;DHT22;133;49.626;9.680;2023-02-28T04:58:06;-1.20;84.20
298;DHT22;133;49.626;9.680;2023-02-28T05:00:32;-1.30;84.20
298;DHT22;133;49.626;9.680;2023-02-28T05:02:58;-1.30;84.90
298;DHT22;133;49.626;9.680;2023-02-28T05:05:23;-1.30;84.60
298;DHT22;133;49.626;9.680;2023-02-28T05:07:49;-1.30;84.70
298;DHT22;133;49.626;9.680;2023-02-28T05:10:14;-1.20;84.40
298;DHT22;133;49.626;9.680;2023-02-28T05:12:40;-1.20;84.40
298;DHT22;133;49.626;9.680;2023-02-28T05:15:06;-1.30;84.50
298;DHT22;133;49.626;9.680;2023-02-28T05:17:32;-1.20;84.60
298;DHT22;133;49.626;9.680;2023-02-28T05:19:57;-1.20;84.60
298;DHT22;133;49.626;9.680;2023-02-28T05:22:23;-1.20;84.80
298;DHT22;133;49.626;9.680;2023-02-28T05:24:48;-1.30;84.80
298;DHT22;133;49.626;9.680;2023-02-28T05:27:14;-1.30;84.90
298;DHT22;133;49.626;9.680;2023-02-28T05:29:40;-1.30;84.80
298;DHT22;133;49.626;9.680;2023-02-28T05:32:11;-1.40;84.90
298;DHT22;133;49.626;9.680;2023-02-28T05:34:40;-1.40;85.20
298;DHT22;133;49.626;9.680;2023-02-28T05:37:11;-1.40;85.00
298;DHT22;133;49.626;9.680;2023-02-28T05:39:37;-1.40;85.40
298;DHT22;133;49.626;9.680;2023-02-28T05:42:04;-1.40;85.40
298;DHT22;133;49.626;9.680;2023-02-28T05:44:30;-1.40;85.20
298;DHT22;133;49.626;9.680;2023-02-28T05:46:55;-1.30;85.00
298;DHT22;133;49.626;9.680;2023-02-28T05:49:21;-1.40;85.30
298;DHT22;133;49.626;9.680;2023-02-28T05:51:47;-1.50;85.70
298;DHT22;133;49.626;9.680;2023-02-28T05:54:12;-1.50;85.70
298;DHT22;133;49.626;9.680;2023-02-28T05:56:38;-1.50;85.90
298;DHT22;133;49.626;9.680;2023-02-28T05:59:09;-1.50;85.80
298;DHT22;133;49.626;9.680;2023-02-28T06:01:40;-1.50;85.70
298;DHT22;133;49.626;9.680;2023-02-28T06:04:08;-1.50;85.60
298;DHT22;133;49.626;9.680;2023-02-28T06:06:35;-1.40;85.50
298;DHT22;133;49.626;9.680;2023-02-28T06:09:03;-1.40;85.60
298;DHT22;133;49.626;9.680;2023-02-28T06:11:29;-1.50;85.50
298;DHT22;133;49.626;9.680;2023-02-28T06:13:56;-1.50;85.80
298;DHT22;133;49.626;9.680;2023-02-28T06:16:22;-1.40;85.90
298;DHT22;133;49.626;9.680;2023-02-28T06:18:47;-1.50;85.80
298;DHT22;133;49.626;9.680;2023-02-28T06:21:13;-1.40;85.80
298;DHT22;133;49.626;9.680;2023-02-28T06:23:39;-1.50;85.70
298;DHT22;133;49.626;9.680;2023-02-28T06:26:05;-1.50;85.90
298;DHT22;133;49.626;9.680;2023-02-28T06:28:31;-1.40;85.90
298;DHT22;133;49.626;9.680;2023-02-28T06:30:56;-1.40;85.80
298;DHT22;133;49.626;9.680;2023-02-28T06:33:22;-1.40;85.80
298;DHT22;133;49.626;9.680;2023-02-28T06:35:50;-1.40;85.80
298;DHT22;133;49.626;9.680;2023-02-28T06:38:17;-1.40;85.80
298;DHT22;133;49.626;9.680;2023-02-28T06:40:44;-1.40;85.90
298;DHT22;133;49.626;9.680;2023-02-28T06:43:10;-1.40;85.90
298;DHT22;133;49.626;9.680;2023-02-28T06:45:41;-1.40;85.60
298;DHT22;133;49.626;9.680;2023-02-28T06:48:07;-1.50;85.90
298;DHT22;133;49.626;9.680;2023-02-28T06:50:33;-1.40;86.00
298;DHT22;133;49.626;9.680;2023-02-28T06:52:58;-1.40;85.80
298;DHT22;133;49.626;9.680;2023-02-28T06:55:24;-1.30;85.70
298;DHT22;133;49.626;9.680;2023-02-28T06:57:49;-1.30;85.60
298;DHT22;133;49.626;9.680;2023-02-28T07:00:16;-1.40;85.80
298;DHT22;133;49.626;9.680;2023-02-28T07:02:42;-1.30;85.70
298;DHT22;133;49.626;9.680;2023-02-28T07:05:08;-1.20;85.70
298;DHT22;133;49.626;9.680;2023-02-28T07:07:33;-1.20;85.40
298;DHT22;133;49.626;9.680;2023-02-28T07:10:01;-1.20;85.20
298;DHT22;133;49.626;9.680;2023-02-28T07:12:27;-1.10;85.30
298;DHT22;133;49.626;9.680;2023-02-28T07:14:53;-1.00;85.00
298;DHT22;133;49.626;9.680;2023-02-28T07:17:19;-0.90;84.80
298;DHT22;133;49.626;9.680;2023-02-28T07:19:45;-0.90;84.50
298;DHT22;133;49.626;9.680;2023-02-28T07:22:11;-0.80;84.50
298;DHT22;133;49.626;9.680;2023-02-28T07:24:36;-0.70;84.20
298;DHT22;133;49.626;9.680;2023-02-28T07:27:02;-0.60;84.30
298;DHT22;133;49.626;9.680;2023-02-28T07:29:28;-0.50;84.20
298;DHT22;133;49.626;9.680;2023-02-28T07:31:54;-0.50;84.00
298;DHT22;133;49.626;9.680;2023-02-28T07:34:20;-0.40;83.70
298;DHT22;133;49.626;9.680;2023-02-28T07:36:46;-0.40;83.30
298;DHT22;133;49.626;9.680;2023-02-28T07:39:12;-0.30;83.10
298;DHT22;133;49.626;9.680;2023-02-28T07:41:37;-0.30;83.20
298;DHT22;133;49.626;9.680;2023-02-28T07:44:11;-0.30;82.40
298;DHT22;133;49.626;9.680;2023-02-28T07:46:37;-0.20;82.20
298;DHT22;133;49.626;9.680;2023-02-28T07:49:03;-0.20;82.10
298;DHT22;133;49.626;9.680;2023-02-28T07:51:30;-0.10;82.50
298;DHT22;133;49.626;9.680;2023-02-28T07:53:56;0.00;82.50
298;DHT22;133;49.626;9.680;2023-02-28T07:56:22;0.00;82.40
298;DHT22;133;49.626;9.680;2023-02-28T07:58:47;0.00;82.30
298;DHT22;133;49.626;9.680;2023-02-28T08:01:13;0.10;81.90
298;DHT22;133;49.626;9.680;2023-02-28T08:03:40;0.20;81.30
298;DHT22;133;49.626;9.680;2023-02-28T08:06:07;0.20;81.10
298;DHT22;133;49.626;9.680;2023-02-28T08:08:33;0.30;81.20
298;DHT22;133;49.626;9.680;2023-02-28T08:11:00;0.30;80.50
298;DHT22;133;49.626;9.680;2023-02-28T08:13:27;0.40;80.10
298;DHT22;133;49.626;9.680;2023-02-28T08:15:54;0.50;80.00
298;DHT22;133;49.626;9.680;2023-02-28T08:18:20;0.60;79.60
298;DHT22;133;49.626;9.680;2023-02-28T08:20:46;0.60;79.80
298;DHT22;133;49.626;9.680;2023-02-28T08:23:12;0.70;79.80
298;DHT22;133;49.626;9.680;2023-02-28T08:25:37;0.80;79.30
298;DHT22;133;49.626;9.680;2023-02-28T08:28:03;0.80;79.00
298;DHT22;133;49.626;9.680;2023-02-28T08:30:29;0.90;78.30
298;DHT22;133;49.626;9.680;2023-02-28T08:32:54;1.00;78.50
298;DHT22;133;49.626;9.680;2023-02-28T08:35:21;1.00;78.00
298;DHT22;133;49.626;9.680;2023-02-28T08:37:50;1.00;78.20
298;DHT22;133;49.626;9.680;2023-02-28T08:40:16;1.10;77.80
298;DHT22;133;49.626;9.680;2023-02-28T08:42:47;1.20;78.10
298;DHT22;133;49.626;9.680;2023-02-28T08:45:14;1.30;77.70
298;DHT22;133;49.626;9.680;2023-02-28T08:47:40;1.40;77.60
298;DHT22;133;49.626;9.680;2023-02-28T08:50:06;1.60;76.70
298;DHT22;133;49.626;9.680;2023-02-28T08:52:32;1.70;76.80
298;DHT22;133;49.626;9.680;2023-02-28T08:54:58;1.80;76.70
298;DHT22;133;49.626;9.680;2023-02-28T08:57:23;2.00;75.40
298;DHT22;133;49.626;9.680;2023-02-28T08:59:51;2.10;74.60
298;DHT22;133;49.626;9.680;2023-02-28T09:02:17;2.10;75.00
298;DHT22;133;49.626;9.680;2023-02-28T09:04:43;2.10;74.60
298;DHT22;133;49.626;9.680;2023-02-28T09:07:11;2.20;74.80
298;DHT22;133;49.626;9.680;2023-02-28T09:09:37;2.20;75.60
298;DHT22;133;49.626;9.680;2023-02-28T09:12:03;2.30;75.10
298;DHT22;133;49.626;9.680;2023-02-28T09:14:28;2.30;74.20
298;DHT22;133;49.626;9.680;2023-02-28T09:16:54;2.40;74.00
298;DHT22;133;49.626;9.680;2023-02-28T09:19:20;2.50;74.40
298;DHT22;133;49.626;9.680;2023-02-28T09:21:46;2.60;74.00
298;DHT22;133;49.626;9.680;2023-02-28T09:24:11;2.60;73.40
298;DHT22;133;49.626;9.680;2023-02-28T09:26:39;2.70;73.10
298;DHT22;133;49.626;9.680;2023-02-28T09:29:06;2.70;72.50
298;DHT22;133;49.626;9.680;2023-02-28T09:31:32;2.80;72.20
298;DHT22;133;49.626;9.680;2023-02-28T09:33:58;2.90;73.20
298;DHT22;133;49.626;9.680;2023-02-28T09:36:25;3.10;72.80
298;DHT22;133;49.626;9.680;2023-02-28T09:38:51;3.40;72.20
298;DHT22;133;49.626;9.680;2023-02-28T09:41:26;3.60;71.80
298;DHT22;133;49.626;9.680;2023-02-28T09:43:57;3.90;71.40
298;DHT22;133;49.626;9.680;2023-02-28T09:46:33;4.20;70.30
298;DHT22;133;49.626;9.680;2023-02-28T09:49:05;4.20;68.40
298;DHT22;133;49.626;9.680;2023-02-28T09:51:48;4.20;67.60
298;DHT22;133;49.626;9.680;2023-02-28T09:54:20;4.10;67.30
298;DHT22;133;49.626;9.680;2023-02-28T09:57:08;4.10;67.50
298;DHT22;133;49.626;9.680;2023-02-28T10:04:56;4.40;66.40
298;DHT22;133;49.626;9.680;2023-02-28T10:07:29;4.40;66.20
298;DHT22;133;49.626;9.680;2023-02-28T10:10:02;4.50;66.90
298;DHT22;133;49.626;9.680;2023-02-28T10:12:31;4.50;66.20
298;DHT22;133;49.626;9.680;2023-02-28T10:14:59;4.50;65.90
298;DHT22;133;49.626;9.680;2023-02-28T10:17:36;4.50;66.00
298;DHT22;133;49.626;9.680;2023-02-28T10:20:15;4.40;66.10
298;DHT22;133;49.626;9.680;2023-02-28T10:25:55;4.60;66.10
298;DHT22;133;49.626;9.680;2023-02-28T10:28:24;4.60;65.70
298;DHT22;133;49.626;9.680;2023-02-28T10:30:52;4.60;65.80
298;DHT22;133;49.626;9.680;2023-02-28T10:33:33;4.40;66.70
298;DHT22;133;49.626;9.680;2023-02-28T10:36:03;4.60;66.80
298;DHT22;133;49.626;9.680;2023-02-28T10:38:37;4.70;65.20
298;DHT22;133;49.626;9.680;2023-02-28T10:41:30;4.90;65.50
298;DHT22;133;49.626;9.680;2023-02-28T10:44:32;4.90;65.00
298;DHT22;133;49.626;9.680;2023-02-28T10:46:58;5.10;64.90
298;DHT22;133;49.626;9.680;2023-02-28T10:49:26;5.30;64.60
298;DHT22;133;49.626;9.680;2023-02-28T10:51:59;5.50;63.70
298;DHT22;133;49.626;9.680;2023-02-28T10:54:35;5.50;63.60
298;DHT22;133;49.626;9.680;2023-02-28T10:59:40;5.70;63.40
298;DHT22;133;49.626;9.680;2023-02-28T11:02:32;5.50;62.90
298;DHT22;133;49.626;9.680;2023-02-28T11:04:58;5.20;63.00
298;DHT22;133;49.626;9.680;2023-02-28T11:07:25;5.20;63.20
298;DHT22;133;49.626;9.680;2023-02-28T11:09:55;5.10;63.20
298;DHT22;133;49.626;9.680;2023-02-28T11:12:26;5.20;64.00
298;DHT22;133;49.626;9.680;2023-02-28T11:14:57;5.20;64.60
298;DHT22;133;49.626;9.680;2023-02-28T11:17:25;5.40;63.70
298;DHT22;133;49.626;9.680;2023-02-28T11:19:54;5.50;63.40
298;DHT22;133;49.626;9.680;2023-02-28T11:22:29;5.80;62.70
298;DHT22;133;49.626;9.680;2023-02-28T11:25:01;6.10;61.90
298;DHT22;133;49.626;9.680;2023-02-28T11:29:56;6.20;61.30
298;DHT22;133;49.626;9.680;2023-02-28T11:32:24;6.50;61.00
298;DHT22;133;49.626;9.680;2023-02-28T11:37:37;7.00;59.60
298;DHT22;133;49.626;9.680;2023-02-28T11:40:14;6.70;58.70
298;DHT22;133;49.626;9.680;2023-02-28T11:43:20;7.00;58.70
298;DHT22;133;49.626;9.680;2023-02-28T11:49:23;7.20;58.00
298;DHT22;133;49.626;9.680;2023-02-28T11:54:51;7.60;59.30
298;DHT22;133;49.626;9.680;2023-02-28T12:05:42;7.60;57.50
298;DHT22;133;49.626;9.680;2023-02-28T12:20:18;7.20;59.30
298;DHT22;133;49.626;9.680;2023-02-28T12:22:55;7.30;58.80
298;DHT22;133;49.626;9.680;2023-02-28T12:28:30;7.80;59.30
298;DHT22;133;49.626;9.680;2023-02-28T12:31:26;8.10;57.90
298;DHT22;133;49.626;9.680;2023-02-28T12:33:53;8.40;57.40
298;DHT22;133;49.626;9.680;2023-02-28T12:36:21;8.70;56.40
298;DHT22;133;49.626;9.680;2023-02-28T12:38:49;8.60;56.60
298;DHT22;133;49.626;9.680;2023-02-28T12:41:26;8.70;56.50
298;DHT22;133;49.626;9.680;2023-02-28T12:44:55;8.90;56.40
298;DHT22;133;49.626;9.680;2023-02-28T12:46:58;9.00;56.30
298;DHT22;133;49.626;9.680;2023-02-28T12:49:30;9.70;56.40
298;DHT22;133;49.626;9.680;2023-02-28T12:51:58;10.30;53.90
298;DHT22;133;49.626;9.680;2023-02-28T12:57:45;10.80;52.50
298;DHT22;133;49.626;9.680;2023-02-28T12:59:58;10.80;52.70
298;DHT22;133;49.626;9.680;2023-02-28T13:10:45;10.40;52.00
298;DHT22;133;49.626;9.680;2023-02-28T13:13:25;10.20;52.50
298;DHT22;133;49.626;9.680;2023-02-28T13:16:09;10.30;52.50
298;DHT22;133;49.626;9.680;2023-02-28T13:18:38;10.20;52.90
298;DHT22;133;49.626;9.680;2023-02-28T13:21:24;10.00;52.90
298;DHT22;133;49.626;9.680;2023-02-28T13:47:44;12.30;49.40
298;DHT22;133;49.626;9.680;2023-02-28T13:50:36;12.60;49.00
298;DHT22;133;49.626;9.680;2023-02-28T14:06:37;12.70;47.90
298;DHT22;133;49.626;9.680;2023-02-28T14:11:51;13.00;47.60
298;DHT22;133;49.626;9.680;2023-02-28T14:17:15;13.10;47.50
298;DHT22;133;49.626;9.680;2023-02-28T14:19:44;12.80;47.80
298;DHT22;133;49.626;9.680;2023-02-28T14:31:07;12.40;48.40
298;DHT22;133;49.626;9.680;2023-02-28T14:36:40;12.00;49.20
298;DHT22;133;49.626;9.680;2023-02-28T14:39:10;12.10;48.70
298;DHT22;133;49.626;9.680;2023-02-28T14:41:39;12.00;49.20
298;DHT22;133;49.626;9.680;2023-02-28T14:44:21;11.60;49.20
298;DHT22;133;49.626;9.680;2023-02-28T14:46:50;11.10;49.80
298;DHT22;133;49.626;9.680;2023-02-28T14:49:28;11.00;50.50
298;DHT22;133;49.626;9.680;2023-02-28T14:52:20;10.90;50.90
298;DHT22;133;49.626;9.680;2023-02-28T14:54:51;10.70;50.90
298;DHT22;133;49.626;9.680;2023-02-28T14:57:27;10.40;51.60
298;DHT22;133;49.626;9.680;2023-02-28T15:00:02;10.50;51.60
298;DHT22;133;49.626;9.680;2023-02-28T15:02:31;10.10;52.10
298;DHT22;133;49.626;9.680;2023-02-28T15:05:02;9.80;52.80
298;DHT22;133;49.626;9.680;2023-02-28T15:07:36;9.70;53.60
298;DHT22;133;49.626;9.680;2023-02-28T15:10:20;9.30;53.60
298;DHT22;133;49.626;9.680;2023-02-28T15:12:53;9.10;54.40
298;DHT22;133;49.626;9.680;2023-02-28T15:15:21;9.30;54.30
298;DHT22;133;49.626;9.680;2023-02-28T15:17:52;9.20;55.00
298;DHT22;133;49.626;9.680;2023-02-28T15:20:19;9.00;54.70
298;DHT22;133;49.626;9.680;2023-02-28T15:22:46;8.50;55.60
298;DHT22;133;49.626;9.680;2023-02-28T15:25:16;8.30;56.60
298;DHT22;133;49.626;9.680;2023-02-28T15:27:49;8.40;56.40
298;DHT22;133;49.626;9.680;2023-02-28T15:30:21;8.50;56.00
298;DHT22;133;49.626;9.680;2023-02-28T15:35:34;8.00;56.50
298;DHT22;133;49.626;9.680;2023-02-28T15:38:02;8.00;57.00
298;DHT22;133;49.626;9.680;2023-02-28T15:40:38;7.80;57.60
298;DHT22;133;49.626;9.680;2023-02-28T15:43:07;7.70;58.40
298;DHT22;133;49.626;9.680;2023-02-28T15:45:41;7.80;58.00
298;DHT22;133;49.626;9.680;2023-02-28T15:50:41;7.90;57.80
298;DHT22;133;49.626;9.680;2023-02-28T15:53:14;8.00;58.00
298;DHT22;133;49.626;9.680;2023-02-28T15:55:44;8.00;57.70
298;DHT22;133;49.626;9.680;2023-02-28T15:58:11;8.00;57.20
298;DHT22;133;49.626;9.680;2023-02-28T16:00:39;7.90;57.30
298;DHT22;133;49.626;9.680;2023-02-28T16:03:32;7.80;57.50
298;DHT22;133;49.626;9.680;2023-02-28T16:08:47;7.40;58.70
298;DHT22;133;49.626;9.680;2023-02-28T16:11:14;7.30;58.80
298;DHT22;133;49.626;9.680;2023-02-28T16:13:40;7.40;58.60
298;DHT22;133;49.626;9.680;2023-02-28T16:16:06;7.20;59.40
298;DHT22;133;49.626;9.680;2023-02-28T16:18:31;7.20;59.40
298;DHT22;133;49.626;9.680;2023-02-28T16:20:57;7.20;59.10
298;DHT22;133;49.626;9.680;2023-02-28T16:23:23;6.80;59.40
298;DHT22;133;49.626;9.680;2023-02-28T16:25:48;6.60;60.10
298;DHT22;133;49.626;9.680;2023-02-28T16:28:25;6.50;60.30
298;DHT22;133;49.626;9.680;2023-02-28T16:30:56;6.50;60.80
298;DHT22;133;49.626;9.680;2023-02-28T16:33:22;6.30;61.00
298;DHT22;133;49.626;9.680;2023-02-28T16:35:48;6.10;61.50
298;DHT22;133;49.626;9.680;2023-02-28T16:38:13;6.20;61.60
298;DHT22;133;49.626;9.680;2023-02-28T16:40:39;6.10;62.20
298;DHT22;133;49.626;9.680;2023-02-28T16:43:16;6.20;61.60
298;DHT22;133;49.626;9.680;2023-02-28T16:45:42;6.20;61.60
298;DHT22;133;49.626;9.680;2023-02-28T16:48:14;6.10;61.20
298;DHT22;133;49.626;9.680;2023-02-28T16:50:41;5.90;61.50
298;DHT22;133;49.626;9.680;2023-02-28T16:53:07;5.80;62.00
298;DHT22;133;49.626;9.680;2023-02-28T16:55:34;5.60;62.60
298;DHT22;133;49.626;9.680;2023-02-28T16:58:01;5.60;62.40
298;DHT22;133;49.626;9.680;2023-02-28T17:00:29;5.50;62.90
298;DHT22;133;49.626;9.680;2023-02-28T17:02:56;5.50;62.70
298;DHT22;133;49.626;9.680;2023-02-28T17:05:22;5.50;62.60
298;DHT22;133;49.626;9.680;2023-02-28T17:07:49;5.30;63.00
298;DHT22;133;49.626;9.680;2023-02-28T17:10:17;5.10;63.30
298;DHT22;133;49.626;9.680;2023-02-28T17:12:43;5.10;63.80
298;DHT22;133;49.626;9.680;2023-02-28T17:15:10;5.10;63.50
298;DHT22;133;49.626;9.680;2023-02-28T17:17:36;4.70;64.10
298;DHT22;133;49.626;9.680;2023-02-28T17:20:03;4.80;64.30
298;DHT22;133;49.626;9.680;2023-02-28T17:22:29;4.50;64.80
298;DHT22;133;49.626;9.680;2023-02-28T17:24:55;4.50;64.80
298;DHT22;133;49.626;9.680;2023-02-28T17:27:24;4.50;64.80
298;DHT22;133;49.626;9.680;2023-02-28T17:29:50;4.40;65.20
298;DHT22;133;49.626;9.680;2023-02-28T17:32:16;4.20;65.40
298;DHT22;133;49.626;9.680;2023-02-28T17:34:42;4.10;66.00
298;DHT22;133;49.626;9.680;2023-02-28T17:37:09;4.00;66.30
298;DHT22;133;49.626;9.680;2023-02-28T17:39:35;4.10;65.90
298;DHT22;133;49.626;9.680;2023-02-28T17:42:00;4.00;66.40
298;DHT22;133;49.626;9.680;2023-02-28T17:44:26;4.00;66.70
298;DHT22;133;49.626;9.680;2023-02-28T17:46:53;4.00;66.50
298;DHT22;133;49.626;9.680;2023-02-28T17:49:20;4.10;66.10
298;DHT22;133;49.626;9.680;2023-02-28T17:51:46;4.10;67.10
298;DHT22;133;49.626;9.680;2023-02-28T17:54:12;4.00;66.80
298;DHT22;133;49.626;9.680;2023-02-28T17:56:40;4.00;67.10
298;DHT22;133;49.626;9.680;2023-02-28T17:59:08;3.90;67.40
298;DHT22;133;49.626;9.680;2023-02-28T18:01:33;3.90;67.20
298;DHT22;133;49.626;9.680;2023-02-28T18:04:00;3.90;66.90
298;DHT22;133;49.626;9.680;2023-02-28T18:06:29;3.90;67.20
298;DHT22;133;49.626;9.680;2023-02-28T18:08:56;3.90;66.90
298;DHT22;133;49.626;9.680;2023-02-28T18:11:23;3.80;68.20
298;DHT22;133;49.626;9.680;2023-02-28T18:13:53;3.80;68.40
298;DHT22;133;49.626;9.680;2023-02-28T18:16:20;3.80;68.30
298;DHT22;133;49.626;9.680;2023-02-28T18:18:47;3.70;67.90
298;DHT22;133;49.626;9.680;2023-02-28T18:21:15;3.70;67.40
298;DHT22;133;49.626;9.680;2023-02-28T18:23:42;3.60;68.00
298;DHT22;133;49.626;9.680;2023-02-28T18:26:14;3.50;68.40
298;DHT22;133;49.626;9.680;2023-02-28T18:28:40;3.50;68.70
298;DHT22;133;49.626;9.680;2023-02-28T18:31:12;3.40;68.70
298;DHT22;133;49.626;9.680;2023-02-28T18:33:40;3.40;68.70
298;DHT22;133;49.626;9.680;2023-02-28T18:36:06;3.40;68.80
298;DHT22;133;49.626;9.680;2023-02-28T18:38:32;3.40;68.90
298;DHT22;133;49.626;9.680;2023-02-28T18:41:01;3.50;68.90
298;DHT22;133;49.626;9.680;2023-02-28T18:43:28;3.40;68.60
298;DHT22;133;49.626;9.680;2023-02-28T18:45:54;3.40;68.50
298;DHT22;133;49.626;9.680;2023-02-28T18:48:20;3.20;69.00
298;DHT22;133;49.626;9.680;2023-02-28T18:50:51;3.10;69.00
298;DHT22;133;49.626;9.680;2023-02-28T18:53:17;3.10;69.40
298;DHT22;133;49.626;9.680;2023-02-28T18:55:43;3.10;69.20
298;DHT22;133;49.626;9.680;2023-02-28T18:58:09;3.00;69.20
298;DHT22;133;49.626;9.680;2023-02-28T19:00:35;3.00;69.30
298;DHT22;133;49.626;9.680;2023-02-28T19:03:01;2.90;69.60
298;DHT22;133;49.626;9.680;2023-02-28T19:05:27;2.90;69.80
298;DHT22;133;49.626;9.680;2023-02-28T19:07:57;2.80;70.00
298;DHT22;133;49.626;9.680;2023-02-28T19:10:23;2.90;70.30
298;DHT22;133;49.626;9.680;2023-02-28T19:12:49;2.90;70.10
298;DHT22;133;49.626;9.680;2023-02-28T19:15:14;2.80;70.30
298;DHT22;133;49.626;9.680;2023-02-28T19:17:40;2.80;70.40
298;DHT22;133;49.626;9.680;2023-02-28T19:20:07;2.90;70.10